Archival Weather

Tokyo Intl

Tokyo, Japan (RJTT)

Report from: Friday, September 22, 2023 1:00 AM JST
Current time: Sunday, February 25, 2024 12:39 AM JST

Current weather – Weather history – Daily summaries
Weather forecast

Present weatherLight rain showers
Temperature28.0°C (82.4°F)
Heat index32.7°C (90.9°F)
Dew point25.0°C (77.0°F)
Winds 14 kts (7.2 m/s, 16.1 mph) South-Southwest (200°)
Visibility6.2 mi. (10 km)
Clouds Few clouds 2,000 ft. (610 m)
Ceiling: Broken clouds 14,000 ft. (4,267 m)
Altimeter29.71 in.Hg (1006 mB)
Relative humidity84 %
Density altitude2,163 ft. (659 m)
Remarks No significant changes expected in the next two hours
Flight conditions Visual Meteorological Conditions
Raw dataRJTT 211600Z 20014KT 9999 -SHRA FEW020 BKN140 28/25 Q1006 NOSIG
An error has occurred. This application may no longer respond until reloaded. Reload 🗙